Time;durP1;ratioP1;P1;durP2;ratioP2;P2;SDS_P1;SDS_P2;PMS_P1;PMS_P2;Temp;Humidity;BMP_temperature;BMP_pressure;BME280_temperature;BME280_humidity;BME280_pressure;Samples;Min_cycle;Max_cycle;Signal;HPM_P1;HPM_P2
2021/06/22 05:47:34;;;;;;;13.27;7.00;;;;;;;;;;5047281;23;20074;-63
2021/06/22 05:50:00;;;;;;;10.70;7.57;;;;;;;;;;4916970;29;20403;-69
2021/06/22 05:52:26;;;;;;;12.82;8.00;;;;;;;;;;4917014;29;20039;-61
2021/06/22 05:54:52;;;;;;;10.90;7.82;;;;;;;;;;4917117;29;20491;-62
2021/06/22 05:57:18;;;;;;;11.15;7.38;;;;;;;;;;4899964;29;20484;-65
2021/06/22 05:59:44;;;;;;;8.93;7.07;;;;;;;;;;4916515;29;20125;-64
2021/06/22 06:02:10;;;;;;;11.73;7.13;;;;;;;;;;4917061;29;20036;-63
2021/06/22 06:04:37;;;;;;;11.02;7.65;;;;;;;;;;4916893;29;20032;-71
2021/06/22 06:07:03;;;;;;;12.15;7.40;;;;;;;;;;4899023;29;20055;-69
2021/06/22 06:09:29;;;;;;;10.75;7.53;;;;;;;;;;4916639;29;20032;-61
2021/06/22 06:11:55;;;;;;;12.52;7.80;;;;;;;;;;4916417;29;20028;-66
2021/06/22 06:14:22;;;;;;;11.23;7.30;;;;;;;;;;4916688;29;20396;-67
2021/06/22 06:16:48;;;;;;;12.27;7.50;;;;;;;;;;4916694;29;20036;-66
2021/06/22 06:19:14;;;;;;;11.55;8.02;;;;;;;;;;4916288;29;20473;-61
2021/06/22 06:21:40;;;;;;;12.75;7.80;;;;;;;;;;4916785;29;20032;-68
2021/06/22 06:24:07;;;;;;;16.20;8.10;;;;;;;;;;4916549;29;20460;-69
2021/06/22 06:26:43;;;;;;;12.27;7.45;;;;;;;;;;4934819;29;20087;-69
2021/06/22 06:31:47;;;;;;;18.27;8.00;;;;;;;;;;4935613;29;20588;-69
2021/06/22 06:34:14;;;;;;;15.95;7.85;;;;;;;;;;4935503;29;20822;-61
2021/06/22 06:36:40;;;;;;;11.48;7.75;;;;;;;;;;4935162;29;20036;-63
2021/06/22 06:39:06;;;;;;;17.33;7.63;;;;;;;;;;4935568;29;20202;-66
2021/06/22 06:41:32;;;;;;;12.75;7.45;;;;;;;;;;4935143;29;20031;-63
2021/06/22 06:43:58;;;;;;;10.48;6.97;;;;;;;;;;4935394;29;20032;-69
2021/06/22 06:46:24;;;;;;;13.73;8.35;;;;;;;;;;4901681;29;20058;-68
2021/06/22 06:48:50;;;;;;;12.18;8.05;;;;;;;;;;4897217;29;20115;-67
2021/06/22 06:51:16;;;;;;;13.13;7.65;;;;;;;;;;4896759;29;20031;-67
2021/06/22 06:53:42;;;;;;;17.65;7.90;;;;;;;;;;4896929;29;20032;-65
2021/06/22 06:56:08;;;;;;;20.85;8.18;;;;;;;;;;4895995;29;20032;-68
2021/06/22 06:58:34;;;;;;;14.75;7.25;;;;;;;;;;4896846;29;20366;-66
2021/06/22 07:01:00;;;;;;;12.98;7.65;;;;;;;;;;4896171;29;20098;-66
2021/06/22 07:03:26;;;;;;;13.27;7.80;;;;;;;;;;4896226;29;20028;-66
2021/06/22 07:05:53;;;;;;;12.88;7.85;;;;;;;;;;4896206;29;20033;-66
2021/06/22 07:08:19;;;;;;;12.63;7.70;;;;;;;;;;4895935;29;20481;-65
2021/06/22 07:10:45;;;;;;;13.02;7.65;;;;;;;;;;4895712;29;20066;-67
2021/06/22 07:13:17;;;;;;;15.20;7.38;;;;;;;;;;4896698;29;20032;-67
2021/06/22 07:15:43;;;;;;;19.67;7.95;;;;;;;;;;4896588;29;20115;-66
2021/06/22 07:18:10;;;;;;;17.27;8.30;;;;;;;;;;4896596;29;20489;-67
2021/06/22 07:20:36;;;;;;;19.77;8.82;;;;;;;;;;4893038;29;20464;-68
2021/06/22 07:23:02;;;;;;;19.83;7.85;;;;;;;;;;4894873;29;20032;-67
2021/06/22 07:25:28;;;;;;;18.67;8.27;;;;;;;;;;4897062;29;20086;-66
2021/06/22 07:27:55;;;;;;;18.45;7.68;;;;;;;;;;4895452;29;20040;-65
2021/06/22 07:30:23;;;;;;;17.48;7.78;;;;;;;;;;4891765;29;20036;-66
2021/06/22 07:32:50;;;;;;;20.60;8.38;;;;;;;;;;4905803;29;20080;-65
2021/06/22 07:35:16;;;;;;;19.45;7.70;;;;;;;;;;4907033;29;20032;-64
2021/06/22 07:37:42;;;;;;;20.38;7.40;;;;;;;;;;4904539;29;20095;-65
2021/06/22 07:40:09;;;;;;;23.95;7.97;;;;;;;;;;4901175;29;20043;-67
2021/06/22 07:42:35;;;;;;;25.35;7.93;;;;;;;;;;4903790;29;20120;-65
2021/06/22 07:45:01;;;;;;;23.55;8.43;;;;;;;;;;4900200;29;20051;-66
2021/06/22 07:47:27;;;;;;;24.50;8.07;;;;;;;;;;4909414;29;20055;-67
2021/06/22 07:49:53;;;;;;;22.35;7.15;;;;;;;;;;4907150;29;20103;-68
2021/06/22 07:52:19;;;;;;;19.30;7.45;;;;;;;;;;4908854;29;20068;-65
2021/06/22 07:54:47;;;;;;;20.35;7.60;;;;;;;;;;4903905;29;20388;-66
2021/06/22 07:57:13;;;;;;;24.75;7.80;;;;;;;;;;4908816;29;20180;-66
2021/06/22 07:59:39;;;;;;;19.15;7.18;;;;;;;;;;4914658;29;20388;-66
2021/06/22 08:02:05;;;;;;;25.75;7.93;;;;;;;;;;4914122;29;20025;-67
2021/06/22 08:04:31;;;;;;;23.98;6.93;;;;;;;;;;4909014;29;20120;-67
2021/06/22 08:06:57;;;;;;;25.38;7.30;;;;;;;;;;4906461;29;20032;-67
2021/06/22 08:09:24;;;;;;;25.92;7.10;;;;;;;;;;4911019;29;20036;-66
2021/06/22 08:11:50;;;;;;;27.35;8.25;;;;;;;;;;4902721;29;20029;-67
2021/06/22 08:14:16;;;;;;;25.65;7.30;;;;;;;;;;4899209;29;20392;-67
2021/06/22 08:16:42;;;;;;;28.20;6.97;;;;;;;;;;4902902;29;20132;-66
2021/06/22 08:19:08;;;;;;;22.83;7.38;;;;;;;;;;4903056;29;20031;-67
2021/06/22 08:21:35;;;;;;;22.20;6.88;;;;;;;;;;4890374;29;20042;-66
2021/06/22 08:24:01;;;;;;;23.27;7.43;;;;;;;;;;4890986;29;20033;-66
2021/06/22 08:26:27;;;;;;;21.60;6.82;;;;;;;;;;4901054;29;20395;-65
2021/06/22 08:28:53;;;;;;;30.05;7.80;;;;;;;;;;4900011;29;20040;-66
2021/06/22 08:31:20;;;;;;;21.60;7.03;;;;;;;;;;4897220;29;20111;-68
2021/06/22 08:33:46;;;;;;;27.67;7.38;;;;;;;;;;4884799;29;20068;-66
2021/06/22 08:36:13;;;;;;;26.77;7.30;;;;;;;;;;4907457;29;20059;-67
2021/06/22 08:38:39;;;;;;;26.45;6.20;;;;;;;;;;4899423;29;20108;-66
2021/06/22 08:41:06;;;;;;;20.42;6.60;;;;;;;;;;4909964;29;20543;-65
2021/06/22 08:43:32;;;;;;;25.08;6.75;;;;;;;;;;4911576;29;20029;-67
2021/06/22 08:46:02;;;;;;;21.88;7.20;;;;;;;;;;4887255;29;20509;-65
2021/06/22 08:48:31;;;;;;;24.92;7.43;;;;;;;;;;4902942;29;20093;-67
2021/06/22 08:50:58;;;;;;;26.00;7.10;;;;;;;;;;4901017;29;20111;-66
2021/06/22 08:53:24;;;;;;;23.05;6.85;;;;;;;;;;4905035;29;20092;-66
2021/06/22 08:55:50;;;;;;;29.70;6.70;;;;;;;;;;4903088;29;20032;-65
2021/06/22 08:58:17;;;;;;;24.15;7.00;;;;;;;;;;4871427;29;20040;-68
2021/06/22 09:00:47;;;;;;;24.70;6.20;;;;;;;;;;4901519;29;20032;-66
2021/06/22 09:03:15;;;;;;;28.55;6.60;;;;;;;;;;4900427;29;20036;-66
2021/06/22 09:05:42;;;;;;;28.67;7.00;;;;;;;;;;4902994;29;20028;-66
2021/06/22 09:08:17;;;;;;;26.00;7.03;;;;;;;;;;4904379;29;20051;-66
2021/06/22 09:10:43;;;;;;;25.27;7.18;;;;;;;;;;4893512;29;20023;-67
2021/06/22 09:13:28;;;;;;;26.38;7.53;;;;;;;;;;4894366;29;20028;-69
2021/06/22 09:15:54;;;;;;;28.90;7.03;;;;;;;;;;4890733;29;20137;-64
2021/06/22 09:18:34;;;;;;;23.70;6.40;;;;;;;;;;4894303;29;20024;-64
2021/06/22 09:21:01;;;;;;;25.05;6.10;;;;;;;;;;4893539;29;20032;-65
2021/06/22 09:23:37;;;;;;;23.63;6.35;;;;;;;;;;4894355;29;20033;-66
2021/06/22 09:26:11;;;;;;;26.17;7.25;;;;;;;;;;4893320;29;20021;-67
2021/06/22 09:28:37;;;;;;;31.52;6.50;;;;;;;;;;4894641;29;20033;-66
2021/06/22 09:31:08;;;;;;;30.30;6.72;;;;;;;;;;4895053;29;20043;-66
2021/06/22 09:33:36;;;;;;;30.85;8.43;;;;;;;;;;4895346;29;20119;-65
2021/06/22 09:36:02;;;;;;;23.45;7.32;;;;;;;;;;4897882;29;20020;-65
2021/06/22 09:38:32;;;;;;;31.40;6.70;;;;;;;;;;4897925;29;20498;-66
2021/06/22 09:41:02;;;;;;;24.23;7.47;;;;;;;;;;4898587;29;20108;-65
2021/06/22 09:43:35;;;;;;;23.10;7.05;;;;;;;;;;4898144;29;20112;-65
2021/06/22 09:46:01;;;;;;;26.70;7.68;;;;;;;;;;4897432;29;20064;-68
2021/06/22 09:48:27;;;;;;;27.88;7.05;;;;;;;;;;4898127;29;20519;-66
2021/06/22 09:50:53;;;;;;;27.52;7.03;;;;;;;;;;4897528;29;20060;-65
2021/06/22 09:53:26;;;;;;;25.83;6.75;;;;;;;;;;4896887;29;20063;-69
2021/06/22 09:55:53;;;;;;;28.38;7.07;;;;;;;;;;4897334;29;20048;-67
2021/06/22 09:58:40;;;;;;;27.45;7.30;;;;;;;;;;4896985;29;20107;-68
2021/06/22 10:01:06;;;;;;;27.92;6.57;;;;;;;;;;4895777;29;20084;-67
2021/06/22 10:03:36;;;;;;;26.40;6.60;;;;;;;;;;4897422;29;20028;-67
2021/06/22 10:06:06;;;;;;;26.20;6.15;;;;;;;;;;4895558;29;20033;-65
2021/06/22 10:08:51;;;;;;;28.23;7.15;;;;;;;;;;4897846;29;20068;-66
2021/06/22 10:11:34;;;;;;;23.10;6.43;;;;;;;;;;4897932;29;20485;-67
2021/06/22 10:14:02;;;;;;;24.52;5.97;;;;;;;;;;4880096;29;20048;-65
2021/06/22 10:16:30;;;;;;;24.00;6.75;;;;;;;;;;4897489;29;20054;-66
2021/06/22 10:18:56;;;;;;;29.08;6.82;;;;;;;;;;4897423;29;20037;-64
2021/06/22 10:21:22;;;;;;;26.83;7.40;;;;;;;;;;4897439;29;20480;-64
2021/06/22 10:23:51;;;;;;;27.25;6.80;;;;;;;;;;4896797;29;20047;-64
2021/06/22 10:26:18;;;;;;;24.75;6.03;;;;;;;;;;4897288;29;20050;-67
2021/06/22 10:28:45;;;;;;;27.58;7.15;;;;;;;;;;4896416;29;20104;-66
2021/06/22 10:31:12;;;;;;;27.17;6.78;;;;;;;;;;4897146;29;20039;-69
2021/06/22 10:33:38;;;;;;;27.38;6.07;;;;;;;;;;4896290;29;20031;-65
2021/06/22 10:36:04;;;;;;;32.55;6.55;;;;;;;;;;4896079;29;20393;-67
2021/06/22 10:38:37;;;;;;;32.85;6.72;;;;;;;;;;4895622;29;20100;-69
2021/06/22 10:41:04;;;;;;;28.23;6.30;;;;;;;;;;4895317;29;20481;-67
2021/06/22 10:43:37;;;;;;;26.42;6.97;;;;;;;;;;4895747;29;20091;-69
2021/06/22 10:46:07;;;;;;;30.98;6.45;;;;;;;;;;4893369;29;20061;-65
2021/06/22 10:48:44;;;;;;;26.92;6.75;;;;;;;;;;4895939;29;20036;-62
2021/06/22 10:51:30;;;;;;;27.60;5.43;;;;;;;;;;4897016;29;20115;-66
2021/06/22 10:53:57;;;;;;;28.48;7.45;;;;;;;;;;4896780;29;20040;-66
2021/06/22 10:56:24;;;;;;;32.33;7.82;;;;;;;;;;4896033;29;20025;-63
2021/06/22 10:59:08;;;;;;;32.90;6.72;;;;;;;;;;4896333;29;20033;-63
2021/06/22 11:01:55;;;;;;;32.30;7.05;;;;;;;;;;4896692;29;20032;-63
2021/06/22 11:04:22;;;;;;;34.97;7.25;;;;;;;;;;4896304;29;20035;-64
2021/06/22 11:07:06;;;;;;;32.15;7.78;;;;;;;;;;4896759;29;20389;-64
2021/06/22 11:09:33;;;;;;;29.40;6.97;;;;;;;;;;4896055;29;20489;-65
2021/06/22 11:12:17;;;;;;;33.75;6.38;;;;;;;;;;4893794;29;20135;-64
2021/06/22 11:14:59;;;;;;;38.38;6.95;;;;;;;;;;4896506;29;20499;-64
2021/06/22 11:17:48;;;;;;;38.40;7.13;;;;;;;;;;4895973;29;20082;-63
2021/06/22 11:20:16;;;;;;;26.75;6.32;;;;;;;;;;4883968;29;20048;-62
2021/06/22 11:23:05;;;;;;;31.98;6.97;;;;;;;;;;4896365;29;20028;-63
2021/06/22 11:25:50;;;;;;;33.90;6.50;;;;;;;;;;4890618;29;20042;-63
2021/06/22 11:28:17;;;;;;;28.50;6.18;;;;;;;;;;4892178;29;20039;-65
2021/06/22 11:30:53;;;;;;;22.85;6.20;;;;;;;;;;4896023;29;20502;-65
2021/06/22 11:33:28;;;;;;;33.45;6.10;;;;;;;;;;4895312;29;20029;-63
2021/06/22 11:36:13;;;;;;;26.63;6.38;;;;;;;;;;4895709;29;20035;-64
2021/06/22 11:38:39;;;;;;;30.65;7.97;;;;;;;;;;4895238;29;20088;-68
2021/06/22 11:41:11;;;;;;;28.30;6.43;;;;;;;;;;4895700;29;20044;-66
2021/06/22 11:43:38;;;;;;;31.05;7.05;;;;;;;;;;4892835;29;20052;-64
2021/06/22 11:46:36;;;;;;;37.70;6.93;;;;;;;;;;4895448;29;20111;-64
2021/06/22 11:49:03;;;;;;;30.73;6.38;;;;;;;;;;4801570;29;20078;-68
2021/06/22 11:51:48;;;;;;;31.80;6.55;;;;;;;;;;4800808;29;20504;-67
2021/06/22 11:54:14;;;;;;;31.75;6.63;;;;;;;;;;4800637;29;20592;-64
2021/06/22 11:56:40;;;;;;;28.23;7.35;;;;;;;;;;4801314;29;20167;-66
2021/06/22 11:59:06;;;;;;;30.88;6.57;;;;;;;;;;4800828;29;20054;-63
2021/06/22 12:01:32;;;;;;;36.90;6.82;;;;;;;;;;4801299;29;20046;-64
2021/06/22 12:03:58;;;;;;;28.30;6.28;;;;;;;;;;4801530;29;20504;-65
2021/06/22 12:06:25;;;;;;;27.92;6.88;;;;;;;;;;4800981;29;20432;-65
2021/06/22 12:08:51;;;;;;;25.65;6.35;;;;;;;;;;4798034;29;20045;-63
2021/06/22 12:11:30;;;;;;;29.17;6.72;;;;;;;;;;4800552;29;20043;-67
2021/06/22 12:13:56;;;;;;;37.15;6.32;;;;;;;;;;4801449;29;20031;-73
2021/06/22 12:16:28;;;;;;;29.13;6.72;;;;;;;;;;4800634;29;20042;-64
2021/06/22 12:18:56;;;;;;;32.17;6.72;;;;;;;;;;4806941;29;20046;-67
2021/06/22 12:21:22;;;;;;;37.75;7.32;;;;;;;;;;4805952;29;20065;-66
2021/06/22 12:23:48;;;;;;;33.80;6.45;;;;;;;;;;4825015;29;20045;-68
2021/06/22 12:26:16;;;;;;;29.92;6.40;;;;;;;;;;4895934;29;20028;-66
2021/06/22 12:28:42;;;;;;;35.78;6.72;;;;;;;;;;4891550;29;20358;-65
2021/06/22 12:31:09;;;;;;;31.08;6.65;;;;;;;;;;4904389;29;20024;-64
2021/06/22 12:33:37;;;;;;;33.50;7.88;;;;;;;;;;4898820;29;20253;-68
2021/06/22 12:36:05;;;;;;;34.17;7.07;;;;;;;;;;4897113;29;20469;-67
2021/06/22 12:38:31;;;;;;;38.38;7.30;;;;;;;;;;4895646;29;20061;-66
2021/06/22 12:40:57;;;;;;;27.35;6.90;;;;;;;;;;4894164;29;20033;-69
2021/06/22 12:43:38;;;;;;;38.28;7.47;;;;;;;;;;4889305;29;20020;-65
2021/06/22 12:46:04;;;;;;;28.33;7.40;;;;;;;;;;4893600;29;20511;-65
2021/06/22 12:48:31;;;;;;;34.95;7.38;;;;;;;;;;4894025;29;20028;-64
2021/06/22 12:50:57;;;;;;;35.45;7.10;;;;;;;;;;4894080;29;20020;-63
2021/06/22 12:53:23;;;;;;;29.10;6.90;;;;;;;;;;4894740;29;20083;-65
2021/06/22 12:55:51;;;;;;;32.30;7.05;;;;;;;;;;4894859;29;20448;-66
2021/06/22 12:58:17;;;;;;;38.65;7.40;;;;;;;;;;4894304;29;20036;-65
2021/06/22 13:00:45;;;;;;;36.53;7.47;;;;;;;;;;4894496;29;20197;-66
2021/06/22 13:03:13;;;;;;;34.20;7.65;;;;;;;;;;4906288;29;20079;-63
2021/06/22 13:05:40;;;;;;;40.03;8.52;;;;;;;;;;4900262;29;20046;-65
2021/06/22 13:08:09;;;;;;;31.77;7.65;;;;;;;;;;4909125;29;20040;-64
2021/06/22 13:10:42;;;;;;;28.30;6.47;;;;;;;;;;4911842;29;20035;-64
2021/06/22 13:13:08;;;;;;;33.08;6.70;;;;;;;;;;4896908;29;20035;-66
2021/06/22 13:15:34;;;;;;;29.00;7.05;;;;;;;;;;4905081;29;20433;-65
2021/06/22 13:18:00;;;;;;;29.45;7.00;;;;;;;;;;4916427;29;20036;-65
2021/06/22 13:20:26;;;;;;;37.22;8.77;;;;;;;;;;4902686;29;20052;-65
2021/06/22 13:23:03;;;;;;;35.95;7.78;;;;;;;;;;4898100;29;20036;-64
2021/06/22 13:25:30;;;;;;;29.15;7.00;;;;;;;;;;4903040;29;20044;-63
2021/06/22 13:28:08;;;;;;;30.80;7.18;;;;;;;;;;4899019;29;20421;-64
2021/06/22 13:30:34;;;;;;;31.38;7.20;;;;;;;;;;4903907;29;20054;-64
2021/06/22 13:33:03;;;;;;;34.13;7.63;;;;;;;;;;4915280;29;20038;-64
2021/06/22 13:35:33;;;;;;;36.83;7.55;;;;;;;;;;4912930;29;20020;-67
2021/06/22 13:38:03;;;;;;;34.15;7.13;;;;;;;;;;4893960;29;20562;-67
2021/06/22 13:40:48;;;;;;;32.22;6.93;;;;;;;;;;4890302;29;20636;-67
2021/06/22 13:43:16;;;;;;;28.27;7.15;;;;;;;;;;4897955;29;20148;-66
2021/06/22 13:45:49;;;;;;;29.70;7.20;;;;;;;;;;4898240;29;20055;-69
2021/06/22 13:48:16;;;;;;;33.78;7.78;;;;;;;;;;4898135;29;20048;-68
2021/06/22 13:50:42;;;;;;;34.30;8.07;;;;;;;;;;4898129;29;20028;-68
2021/06/22 13:53:17;;;;;;;31.08;7.03;;;;;;;;;;4898391;29;20033;-68
2021/06/22 13:55:43;;;;;;;29.75;8.00;;;;;;;;;;4897673;29;20037;-66
2021/06/22 13:58:10;;;;;;;33.65;8.02;;;;;;;;;;4897365;29;20036;-66
2021/06/22 14:00:37;;;;;;;35.45;7.38;;;;;;;;;;4897892;29;20823;-66
2021/06/22 14:03:03;;;;;;;37.15;7.95;;;;;;;;;;4898126;29;20103;-67
2021/06/22 14:05:30;;;;;;;33.42;7.72;;;;;;;;;;4898267;29;20032;-67
2021/06/22 14:07:57;;;;;;;29.20;7.63;;;;;;;;;;4897968;29;20041;-67
2021/06/22 14:10:23;;;;;;;33.80;8.77;;;;;;;;;;4880396;29;20420;-67
2021/06/22 14:12:50;;;;;;;36.42;7.63;;;;;;;;;;4897987;29;20040;-69
2021/06/22 14:15:16;;;;;;;31.13;7.53;;;;;;;;;;4898041;29;20454;-67
2021/06/22 14:17:43;;;;;;;28.60;7.68;;;;;;;;;;4880211;29;20053;-65
2021/06/22 14:20:09;;;;;;;27.98;7.57;;;;;;;;;;4897555;29;20052;-67
2021/06/22 14:22:36;;;;;;;34.40;8.27;;;;;;;;;;4897740;29;20032;-69
2021/06/22 14:25:02;;;;;;;29.30;7.25;;;;;;;;;;4897738;29;20484;-65
2021/06/22 14:27:28;;;;;;;41.85;7.70;;;;;;;;;;4898071;29;20033;-67
2021/06/22 14:29:54;;;;;;;36.85;7.70;;;;;;;;;;4897689;29;20029;-68
2021/06/22 14:32:20;;;;;;;37.25;7.90;;;;;;;;;;4897223;29;20358;-67
2021/06/22 14:34:46;;;;;;;32.42;7.20;;;;;;;;;;4896888;29;20083;-66
2021/06/22 14:37:12;;;;;;;35.28;8.73;;;;;;;;;;4897682;29;20100;-67
2021/06/22 14:39:38;;;;;;;34.78;8.20;;;;;;;;;;4897228;29;20477;-66
2021/06/22 14:42:04;;;;;;;28.20;7.47;;;;;;;;;;4897709;29;20041;-66
2021/06/22 14:44:30;;;;;;;36.28;7.85;;;;;;;;;;4897732;29;20472;-66
2021/06/22 14:46:57;;;;;;;30.05;7.10;;;;;;;;;;4897090;29;20052;-66
2021/06/22 14:49:24;;;;;;;35.65;7.78;;;;;;;;;;4897494;29;20026;-68
2021/06/22 14:51:50;;;;;;;30.75;8.13;;;;;;;;;;4897406;29;20035;-67
2021/06/22 14:54:16;;;;;;;31.98;7.65;;;;;;;;;;4897150;29;20024;-68
2021/06/22 14:56:42;;;;;;;34.70;8.30;;;;;;;;;;4897309;29;20028;-67
2021/06/22 14:59:08;;;;;;;32.13;7.60;;;;;;;;;;4897031;29;20521;-67
2021/06/22 15:01:34;;;;;;;38.53;8.13;;;;;;;;;;4896479;29;20477;-66
2021/06/22 15:04:01;;;;;;;24.75;7.38;;;;;;;;;;4897105;29;20099;-68
2021/06/22 15:06:27;;;;;;;33.03;7.38;;;;;;;;;;4896951;29;20029;-66
2021/06/22 15:08:53;;;;;;;34.72;7.18;;;;;;;;;;4896680;29;20119;-69
2021/06/22 15:11:19;;;;;;;36.58;8.23;;;;;;;;;;4896431;29;20076;-66
2021/06/22 15:13:45;;;;;;;31.38;7.28;;;;;;;;;;4896434;29;20033;-67
2021/06/22 15:16:11;;;;;;;27.15;7.60;;;;;;;;;;4896448;29;20043;-68
2021/06/22 15:18:37;;;;;;;34.30;7.35;;;;;;;;;;4893124;29;20029;-68
2021/06/22 15:21:03;;;;;;;26.15;8.05;;;;;;;;;;4886721;29;20039;-65
2021/06/22 15:23:29;;;;;;;36.10;8.68;;;;;;;;;;4877637;29;20081;-66
2021/06/22 15:25:55;;;;;;;38.15;8.52;;;;;;;;;;4877032;29;20099;-68
2021/06/22 15:28:22;;;;;;;32.15;8.65;;;;;;;;;;4877421;29;20045;-68
2021/06/22 15:30:49;;;;;;;37.05;8.35;;;;;;;;;;4877813;29;20112;-67
2021/06/22 15:33:16;;;;;;;30.45;8.45;;;;;;;;;;4883077;29;20530;-70
2021/06/22 15:35:42;;;;;;;33.45;8.52;;;;;;;;;;4888286;29;20048;-67
2021/06/22 15:38:08;;;;;;;37.35;8.30;;;;;;;;;;4883198;29;20024;-68
2021/06/22 15:40:35;;;;;;;38.08;8.65;;;;;;;;;;4879903;29;20032;-64
2021/06/22 15:43:02;;;;;;;36.40;8.00;;;;;;;;;;4886250;29;20072;-69
2021/06/22 15:45:28;;;;;;;31.67;7.85;;;;;;;;;;4886240;29;20082;-69
2021/06/22 15:47:54;;;;;;;39.63;7.68;;;;;;;;;;4877945;29;20049;-67
2021/06/22 15:50:21;;;;;;;33.92;8.13;;;;;;;;;;4876954;29;20029;-66
2021/06/22 15:52:48;;;;;;;32.38;8.45;;;;;;;;;;4876706;29;20418;-68
2021/06/22 15:55:19;;;;;;;33.58;7.13;;;;;;;;;;4877635;29;20394;-67
2021/06/22 15:57:50;;;;;;;40.92;7.90;;;;;;;;;;4877416;29;20124;-70
2021/06/22 16:00:17;;;;;;;27.75;7.18;;;;;;;;;;4876787;29;20477;-69
2021/06/22 16:02:43;;;;;;;40.47;7.70;;;;;;;;;;4876834;29;20029;-70
2021/06/22 16:05:10;;;;;;;35.97;7.95;;;;;;;;;;4876810;29;20604;-65
2021/06/22 16:07:36;;;;;;;35.83;7.90;;;;;;;;;;4877152;29;20102;-65
2021/06/22 16:10:03;;;;;;;37.92;7.75;;;;;;;;;;4877311;29;20033;-69
2021/06/22 16:12:29;;;;;;;31.30;8.05;;;;;;;;;;4877123;29;20025;-69
2021/06/22 16:14:55;;;;;;;35.63;7.70;;;;;;;;;;4877086;29;20021;-70
2021/06/22 16:17:22;;;;;;;34.33;7.20;;;;;;;;;;4877006;29;20537;-67
2021/06/22 16:19:49;;;;;;;33.75;7.70;;;;;;;;;;4876843;29;20025;-68
2021/06/22 16:22:15;;;;;;;33.88;8.40;;;;;;;;;;4877026;29;20157;-65
2021/06/22 16:24:41;;;;;;;33.65;7.22;;;;;;;;;;4877295;29;20057;-66
2021/06/22 16:27:07;;;;;;;36.00;7.90;;;;;;;;;;4877018;29;20044;-67
2021/06/22 16:29:33;;;;;;;30.98;7.28;;;;;;;;;;4877066;29;20488;-65
2021/06/22 16:32:00;;;;;;;32.80;8.77;;;;;;;;;;4877397;29;20068;-66
2021/06/22 16:34:26;;;;;;;32.38;7.60;;;;;;;;;;4876965;29;20037;-66
2021/06/22 16:36:52;;;;;;;28.33;7.47;;;;;;;;;;4875571;29;20033;-67
2021/06/22 16:39:18;;;;;;;34.17;7.70;;;;;;;;;;4875763;29;20032;-68
2021/06/22 16:41:44;;;;;;;32.65;7.18;;;;;;;;;;4875952;29;20044;-65
2021/06/22 16:44:10;;;;;;;29.63;7.68;;;;;;;;;;4879930;29;20037;-64
2021/06/22 16:46:36;;;;;;;37.88;8.10;;;;;;;;;;4880413;29;20104;-64
2021/06/22 16:49:03;;;;;;;39.65;8.18;;;;;;;;;;4880808;29;20811;-66
2021/06/22 16:51:29;;;;;;;32.05;8.25;;;;;;;;;;4880832;29;20033;-68
2021/06/22 16:53:55;;;;;;;34.25;7.20;;;;;;;;;;4875766;29;20026;-63
2021/06/22 16:56:21;;;;;;;36.70;7.60;;;;;;;;;;4879250;29;20041;-66
2021/06/22 16:58:47;;;;;;;33.35;8.32;;;;;;;;;;4879369;29;20165;-67
2021/06/22 17:01:14;;;;;;;30.77;7.70;;;;;;;;;;4879977;29;20031;-66
2021/06/22 17:03:43;;;;;;;34.10;8.05;;;;;;;;;;4879388;29;20037;-68
2021/06/22 17:06:09;;;;;;;33.65;7.22;;;;;;;;;;4879794;29;20033;-67
2021/06/22 17:08:35;;;;;;;32.95;8.20;;;;;;;;;;4879993;29;20033;-65
2021/06/22 17:11:02;;;;;;;30.15;7.97;;;;;;;;;;4877005;29;20029;-64
2021/06/22 17:13:29;;;;;;;31.42;8.68;;;;;;;;;;4879725;29;20036;-68
2021/06/22 17:15:55;;;;;;;29.55;7.70;;;;;;;;;;4879285;29;20121;-67
2021/06/22 17:18:21;;;;;;;28.48;8.35;;;;;;;;;;4879311;29;20870;-68
2021/06/22 17:20:47;;;;;;;35.17;8.73;;;;;;;;;;4879821;29;20029;-68
2021/06/22 17:23:13;;;;;;;35.00;7.80;;;;;;;;;;4880252;29;20089;-68
2021/06/22 17:25:40;;;;;;;35.10;8.90;;;;;;;;;;4874112;29;20367;-66
2021/06/22 17:28:07;;;;;;;32.50;9.02;;;;;;;;;;4879151;29;20044;-65
2021/06/22 17:30:34;;;;;;;34.97;8.30;;;;;;;;;;4876842;29;20486;-65
2021/06/22 17:33:01;;;;;;;36.70;7.63;;;;;;;;;;4879577;29;20537;-66
2021/06/22 17:35:28;;;;;;;31.67;8.60;;;;;;;;;;4879676;29;20046;-65
2021/06/22 17:37:54;;;;;;;33.47;7.90;;;;;;;;;;4879234;29;20029;-64
2021/06/22 17:40:20;;;;;;;39.92;8.13;;;;;;;;;;4878965;29;20033;-65
2021/06/22 17:42:46;;;;;;;30.33;8.45;;;;;;;;;;4879445;29;20097;-66
2021/06/22 17:45:13;;;;;;;34.50;9.27;;;;;;;;;;4879397;29;20037;-67
2021/06/22 17:47:39;;;;;;;27.88;8.23;;;;;;;;;;4892729;29;20504;-66
2021/06/22 17:50:06;;;;;;;35.47;8.55;;;;;;;;;;4895480;29;20036;-66
2021/06/22 17:52:32;;;;;;;38.03;8.68;;;;;;;;;;4896261;29;20032;-65
2021/06/22 17:54:58;;;;;;;35.70;8.48;;;;;;;;;;4896231;29;20115;-66
2021/06/22 17:57:24;;;;;;;32.20;8.88;;;;;;;;;;4897107;29;20033;-65
2021/06/22 17:59:50;;;;;;;34.45;8.90;;;;;;;;;;4897353;29;20323;-65
2021/06/22 18:02:16;;;;;;;36.65;9.15;;;;;;;;;;4897278;29;20029;-64
2021/06/22 18:04:42;;;;;;;43.45;9.07;;;;;;;;;;4897721;29;20100;-66
2021/06/22 18:07:08;;;;;;;31.38;8.38;;;;;;;;;;4897597;29;20044;-67
2021/06/22 18:09:34;;;;;;;33.13;9.60;;;;;;;;;;4896078;29;20028;-68
2021/06/22 18:12:00;;;;;;;34.15;8.52;;;;;;;;;;4897186;29;20048;-67
2021/06/22 18:14:27;;;;;;;36.65;9.52;;;;;;;;;;4897432;29;20116;-67
2021/06/22 18:16:53;;;;;;;34.83;9.10;;;;;;;;;;4897758;29;20040;-66
2021/06/22 18:19:19;;;;;;;39.22;8.38;;;;;;;;;;4897309;29;20041;-66
2021/06/22 18:21:45;;;;;;;49.28;8.93;;;;;;;;;;4896492;29;20489;-66
2021/06/22 18:24:11;;;;;;;38.05;9.57;;;;;;;;;;4896668;29;20108;-67
2021/06/22 18:26:38;;;;;;;44.00;9.18;;;;;;;;;;4896364;29;20096;-66
2021/06/22 18:29:04;;;;;;;41.15;8.75;;;;;;;;;;4896817;29;20143;-67
2021/06/22 18:31:30;;;;;;;42.28;9.65;;;;;;;;;;4897018;29;20099;-65
2021/06/22 18:33:57;;;;;;;38.78;9.02;;;;;;;;;;4896483;29;20029;-66
2021/06/22 18:36:23;;;;;;;32.83;9.05;;;;;;;;;;4897335;29;20033;-67
2021/06/22 18:38:49;;;;;;;36.33;9.25;;;;;;;;;;4896134;29;20029;-70
2021/06/22 18:41:15;;;;;;;36.42;10.43;;;;;;;;;;4897090;29;20071;-67
2021/06/22 18:43:41;;;;;;;41.63;9.68;;;;;;;;;;4896588;29;20029;-67
2021/06/22 18:46:08;;;;;;;35.10;9.65;;;;;;;;;;4896784;29;20068;-67
2021/06/22 18:48:34;;;;;;;35.92;8.95;;;;;;;;;;4896982;29;20040;-65
2021/06/22 18:51:00;;;;;;;44.63;10.45;;;;;;;;;;4897060;29;20069;-65
2021/06/22 18:53:26;;;;;;;39.10;9.60;;;;;;;;;;4897321;29;20035;-66
2021/06/22 18:55:52;;;;;;;42.38;9.95;;;;;;;;;;4896578;29;20060;-66
2021/06/22 18:58:19;;;;;;;43.63;9.95;;;;;;;;;;4896562;29;20103;-65
2021/06/22 19:00:45;;;;;;;37.58;9.90;;;;;;;;;;4897089;29;20028;-66
2021/06/22 19:03:11;;;;;;;43.40;9.70;;;;;;;;;;4888244;29;20091;-66
2021/06/22 19:05:37;;;;;;;38.78;9.60;;;;;;;;;;4877285;29;20029;-65
2021/06/22 19:08:04;;;;;;;36.45;10.25;;;;;;;;;;4873958;29;20040;-67
2021/06/22 19:10:30;;;;;;;44.05;8.90;;;;;;;;;;4878028;29;20036;-66
2021/06/22 19:12:56;;;;;;;41.15;10.52;;;;;;;;;;4881023;29;20036;-70
2021/06/22 19:15:23;;;;;;;35.80;8.45;;;;;;;;;;4882582;29;20033;-65
2021/06/22 19:17:49;;;;;;;40.17;9.68;;;;;;;;;;4892219;29;20123;-66
2021/06/22 19:20:16;;;;;;;40.50;9.38;;;;;;;;;;4890331;29;20529;-69
2021/06/22 19:22:43;;;;;;;40.60;10.27;;;;;;;;;;4896547;29;20488;-66
2021/06/22 19:25:09;;;;;;;37.58;9.15;;;;;;;;;;4896217;29;20034;-67
2021/06/22 19:27:36;;;;;;;37.00;9.43;;;;;;;;;;4883803;29;20051;-65
2021/06/22 19:30:04;;;;;;;39.42;9.70;;;;;;;;;;4888836;29;20040;-66
2021/06/22 19:32:30;;;;;;;38.08;9.13;;;;;;;;;;4896412;29;20032;-66
2021/06/22 19:34:56;;;;;;;35.78;9.85;;;;;;;;;;4890078;29;20059;-65
2021/06/22 19:37:23;;;;;;;42.72;10.20;;;;;;;;;;4879412;29;20029;-66
2021/06/22 19:39:50;;;;;;;39.95;10.52;;;;;;;;;;4881965;29;20025;-65
2021/06/22 19:42:17;;;;;;;40.28;10.13;;;;;;;;;;4893814;29;20025;-67
2021/06/22 19:44:43;;;;;;;42.28;10.70;;;;;;;;;;4887989;29;20167;-65
2021/06/22 19:47:09;;;;;;;43.95;10.80;;;;;;;;;;4895376;29;20088;-66
2021/06/22 19:49:35;;;;;;;46.90;10.32;;;;;;;;;;4895162;29;20029;-66
2021/06/22 19:52:02;;;;;;;44.80;10.93;;;;;;;;;;4887748;29;20033;-65
2021/06/22 19:54:28;;;;;;;45.55;9.60;;;;;;;;;;4887689;29;20117;-68
2021/06/22 19:56:54;;;;;;;41.92;11.25;;;;;;;;;;4893189;29;20031;-64
2021/06/22 19:59:20;;;;;;;49.15;10.93;;;;;;;;;;4892583;29;20036;-66
2021/06/22 20:01:46;;;;;;;48.42;10.20;;;;;;;;;;4889749;29;20028;-65
2021/06/22 20:04:12;;;;;;;36.75;9.68;;;;;;;;;;4879070;29;20080;-66
2021/06/22 20:06:38;;;;;;;39.10;9.15;;;;;;;;;;4867499;29;20501;-66
2021/06/22 20:09:04;;;;;;;37.13;8.70;;;;;;;;;;4865622;29;20026;-67
2021/06/22 20:11:30;;;;;;;39.00;8.55;;;;;;;;;;4866717;29;20029;-67
2021/06/22 20:13:57;;;;;;;38.67;8.68;;;;;;;;;;4867387;29;20029;-68
2021/06/22 20:16:23;;;;;;;37.17;8.25;;;;;;;;;;4865585;29;20090;-64
2021/06/22 20:18:49;;;;;;;39.40;8.45;;;;;;;;;;4866423;29;20393;-66
2021/06/22 20:21:15;;;;;;;30.83;7.97;;;;;;;;;;4867043;29;20025;-65